Time;durP1;ratioP1;P1;durP2;ratioP2;P2;SDS_P1;SDS_P2;PMS_P1;PMS_P2;Temp;Humidity;BMP_temperature;BMP_pressure;BME280_temperature;BME280_humidity;BME280_pressure;Samples;Min_cycle;Max_cycle;Signal;HPM_P1;HPM_P2
2023/03/18 00:01:08;;;;;;;15.27;6.28;;;12.00;99.90;;;;;;7368694;19;20019;-68
2023/03/18 00:03:38;;;;;;;10.50;5.95;;;12.00;99.90;;;;;;7372109;19;20022;-69
2023/03/18 00:06:10;;;;;;;8.98;6.18;;;12.10;99.90;;;;;;7378137;19;20026;-68
2023/03/18 00:08:38;;;;;;;7.60;5.03;;;12.10;99.90;;;;;;7380276;19;20049;-69
2023/03/18 00:11:06;;;;;;;7.47;5.00;;;12.10;99.90;;;;;;7377551;19;20036;-69
2023/03/18 00:13:34;;;;;;;9.82;5.53;;;12.10;99.90;;;;;;7375624;19;20026;-69
2023/03/18 00:16:01;;;;;;;7.47;5.18;;;12.20;99.90;;;;;;7375601;19;20021;-68
2023/03/18 00:18:28;;;;;;;9.35;6.50;;;12.20;99.90;;;;;;7374069;19;20865;-68
2023/03/18 00:20:56;;;;;;;9.15;5.65;;;12.20;99.90;;;;;;7372939;19;20014;-68
2023/03/18 00:23:23;;;;;;;9.05;5.85;;;12.20;99.90;;;;;;7376188;19;20022;-68
2023/03/18 00:25:52;;;;;;;8.88;5.47;;;12.20;99.90;;;;;;7378265;19;20033;-68
2023/03/18 00:28:19;;;;;;;11.05;6.32;;;12.20;99.90;;;;;;7378819;19;20015;-68
2023/03/18 00:30:46;;;;;;;10.38;6.07;;;12.20;99.90;;;;;;7373278;19;20073;-68
2023/03/18 00:33:13;;;;;;;16.35;6.47;;;12.20;99.90;;;;;;7375032;19;20023;-68
2023/03/18 00:35:40;;;;;;;8.38;6.10;;;12.20;99.90;;;;;;7377196;19;20026;-68
2023/03/18 00:38:07;;;;;;;11.98;7.60;;;12.20;99.90;;;;;;7374930;19;20018;-68
2023/03/18 00:40:52;;;;;;;12.00;6.90;;;12.10;99.90;;;;;;7374347;19;20077;-68
2023/03/18 00:43:28;;;;;;;13.43;8.65;;;12.20;99.90;;;;;;7377592;19;20019;-68
2023/03/18 00:45:56;;;;;;;10.85;8.38;;;12.20;99.90;;;;;;7378196;19;20038;-68
2023/03/18 00:48:24;;;;;;;14.68;9.32;;;12.20;99.90;;;;;;7371595;19;20023;-68
2023/03/18 00:50:51;;;;;;;13.43;8.77;;;12.20;99.90;;;;;;7370832;19;20014;-68
2023/03/18 00:53:18;;;;;;;11.18;9.02;;;12.10;99.90;;;;;;7374153;19;20023;-68
2023/03/18 00:55:45;;;;;;;13.15;10.20;;;12.10;99.90;;;;;;7377180;19;20022;-68
2023/03/18 00:58:12;;;;;;;13.43;9.95;;;12.00;99.90;;;;;;7377143;19;20019;-67
2023/03/18 01:00:40;;;;;;;13.85;10.32;;;12.00;99.90;;;;;;7375551;19;20019;-68
2023/03/18 01:03:07;;;;;;;13.15;10.10;;;12.00;99.90;;;;;;7376259;19;20019;-68
2023/03/18 01:05:34;;;;;;;15.10;10.02;;;11.90;99.90;;;;;;7374157;19;20014;-68
2023/03/18 01:08:03;;;;;;;14.50;10.52;;;11.90;99.90;;;;;;7376525;19;20023;-67
2023/03/18 01:10:31;;;;;;;14.07;11.13;;;11.80;99.90;;;;;;7377271;19;20399;-68
2023/03/18 01:12:57;;;;;;;15.23;10.48;;;11.70;99.90;;;;;;7372052;19;20022;-68
2023/03/18 01:15:24;;;;;;;15.75;11.77;;;11.60;99.90;;;;;;7375283;19;20525;-68
2023/03/18 01:17:53;;;;;;;15.55;11.60;;;11.50;99.90;;;;;;7372803;19;20022;-68
2023/03/18 01:20:22;;;;;;;18.20;11.57;;;11.50;99.90;;;;;;7376210;19;20022;-67
2023/03/18 01:22:52;;;;;;;17.25;12.02;;;11.50;99.90;;;;;;7371646;19;20014;-68
2023/03/18 01:25:20;;;;;;;14.18;12.68;;;11.40;99.90;;;;;;7372360;19;20928;-68
2023/03/18 01:27:54;;;;;;;16.95;11.98;;;11.30;99.90;;;;;;7377069;19;20065;-68
2023/03/18 01:30:23;;;;;;;15.93;12.05;;;11.20;99.90;;;;;;7379683;19;20043;-68
2023/03/18 01:32:52;;;;;;;15.35;12.23;;;11.10;99.90;;;;;;7372855;19;20400;-67
2023/03/18 01:35:19;;;;;;;16.45;13.13;;;11.00;99.90;;;;;;7369095;19;20022;-68
2023/03/18 01:37:48;;;;;;;14.95;12.63;;;10.80;99.90;;;;;;7371134;19;20022;-68
2023/03/18 01:40:15;;;;;;;16.35;12.95;;;10.80;99.90;;;;;;7369611;19;20020;-68
2023/03/18 01:42:51;;;;;;;14.98;12.93;;;10.70;99.90;;;;;;7374487;19;20031;-68
2023/03/18 01:45:28;;;;;;;15.82;13.35;;;10.70;99.90;;;;;;7371751;19;20046;-67
2023/03/18 01:47:58;;;;;;;16.88;15.00;;;10.60;99.90;;;;;;7359605;19;20029;-67
2023/03/18 01:50:29;;;;;;;15.88;13.07;;;10.50;99.90;;;;;;7361126;19;20018;-68
2023/03/18 01:53:08;;;;;;;22.05;14.10;;;10.50;99.90;;;;;;7361573;19;20018;-68
2023/03/18 01:55:36;;;;;;;19.08;14.00;;;10.30;99.90;;;;;;7365180;19;20015;-69
2023/03/18 01:58:12;;;;;;;15.52;13.20;;;10.20;99.90;;;;;;7375153;19;20015;-69
2023/03/18 02:00:43;;;;;;;15.75;12.98;;;10.00;99.90;;;;;;7373784;19;20032;-68
2023/03/18 02:03:15;;;;;;;14.98;13.35;;;9.90;99.90;;;;;;7374132;19;20493;-68
2023/03/18 02:05:42;;;;;;;15.23;13.40;;;9.80;99.90;;;;;;7373261;19;20034;-69
2023/03/18 02:08:09;;;;;;;16.55;13.18;;;9.90;99.90;;;;;;7374574;19;20094;-69
2023/03/18 02:10:39;;;;;;;15.70;14.10;;;9.90;99.90;;;;;;7370219;19;20090;-69
2023/03/18 02:13:08;;;;;;;19.37;13.97;;;10.00;99.90;;;;;;7372756;19;20070;-68
2023/03/18 02:15:45;;;;;;;18.65;15.43;;;10.00;99.90;;;;;;7371700;19;20129;-69
2023/03/18 02:18:27;;;;;;;19.40;15.73;;;10.10;99.90;;;;;;7375220;19;20023;-68
2023/03/18 02:21:16;;;;;;;20.83;15.95;;;10.10;99.90;;;;;;7365649;19;20022;-69
2023/03/18 02:24:10;;;;;;;21.08;17.08;;;10.20;99.90;;;;;;7369801;19;20022;-68
2023/03/18 02:27:03;;;;;;;19.38;16.67;;;10.30;99.90;;;;;;7372480;19;20020;-68
2023/03/18 02:29:39;;;;;;;26.25;17.90;;;10.30;99.90;;;;;;7375350;19;20015;-69
2023/03/18 02:32:14;;;;;;;22.35;17.38;;;10.30;99.90;;;;;;7376000;19;20022;-68
2023/03/18 02:34:43;;;;;;;22.40;18.60;;;10.30;99.90;;;;;;7372640;19;20099;-67
2023/03/18 02:37:12;;;;;;;25.58;18.63;;;10.40;99.90;;;;;;7373834;19;20052;-68
2023/03/18 02:39:41;;;;;;;23.38;19.48;;;10.40;99.90;;;;;;7372749;19;20019;-68
2023/03/18 02:42:11;;;;;;;23.48;21.08;;;10.40;99.90;;;;;;7374424;19;20014;-68
2023/03/18 02:44:45;;;;;;;23.17;20.20;;;10.40;99.90;;;;;;7374160;19;20386;-68
2023/03/18 02:47:43;;;;;;;;;;;10.40;99.90;;;;;;7374199;19;20078;-69
2023/03/18 02:50:10;;;;;;;28.38;20.67;;;10.50;99.90;;;;;;7368790;19;19923;-68
2023/03/18 02:52:37;;;;;;;25.42;21.83;;;10.40;99.90;;;;;;7371860;19;20037;-68
2023/03/18 02:55:06;;;;;;;24.20;21.60;;;10.40;99.90;;;;;;7369044;19;20042;-68
2023/03/18 02:57:35;;;;;;;28.83;21.85;;;10.40;99.90;;;;;;7368990;19;20481;-67
2023/03/18 03:00:04;;;;;;;26.23;20.73;;;10.30;99.90;;;;;;7369955;19;20029;-68
2023/03/18 03:02:31;;;;;;;26.48;21.13;;;10.30;99.90;;;;;;7375403;19;20022;-67
2023/03/18 03:04:57;;;;;;;26.95;22.55;;;10.30;99.90;;;;;;7371916;19;20648;-67
2023/03/18 03:07:27;;;;;;;24.45;21.80;;;10.20;99.90;;;;;;7375549;19;20011;-67
2023/03/18 03:09:56;;;;;;;;;;;10.10;99.90;;;;;;7371180;19;20021;-67
2023/03/18 03:12:22;;;;;;;22.30;18.65;;;10.00;99.90;;;;;;7374962;19;19922;-67
2023/03/18 03:14:53;;;;;;;22.38;18.88;;;9.90;99.90;;;;;;7373200;19;20132;-67
2023/03/18 03:17:20;;;;;;;24.23;20.08;;;9.80;99.90;;;;;;7374246;19;20022;-67
2023/03/18 03:19:46;;;;;;;22.38;18.85;;;9.80;99.90;;;;;;7371365;19;20019;-67
2023/03/18 03:22:16;;;;;;;22.15;19.63;;;9.80;99.90;;;;;;7375676;19;20018;-68
2023/03/18 03:24:43;;;;;;;24.55;19.23;;;9.70;99.90;;;;;;7367407;19;20019;-67
2023/03/18 03:27:11;;;;;;;27.40;20.38;;;9.70;99.90;;;;;;7371276;19;20022;-67
2023/03/18 03:29:38;;;;;;;25.58;22.20;;;9.70;99.90;;;;;;7375224;19;20055;-68
2023/03/18 03:32:04;;;;;;;26.83;22.35;;;9.70;99.90;;;;;;7380105;19;20018;-69
2023/03/18 03:34:31;;;;;;;25.33;22.35;;;9.80;99.90;;;;;;7381998;19;20014;-68
2023/03/18 03:36:57;;;;;;;26.77;23.23;;;9.80;99.90;;;;;;7379956;19;20026;-68
2023/03/18 03:39:26;;;;;;;27.70;22.15;;;9.80;99.90;;;;;;7380052;19;20028;-68
2023/03/18 03:41:52;;;;;;;27.17;24.00;;;9.80;99.90;;;;;;7377136;19;20022;-68
2023/03/18 03:44:19;;;;;;;25.63;21.90;;;9.80;99.90;;;;;;7381675;19;20781;-69
2023/03/18 03:46:48;;;;;;;26.08;22.98;;;9.70;99.90;;;;;;7377698;19;20116;-68
2023/03/18 03:49:15;;;;;;;25.73;22.60;;;9.70;99.90;;;;;;7381857;19;20023;-68
2023/03/18 03:51:43;;;;;;;26.92;22.65;;;9.70;99.90;;;;;;7377054;19;20019;-68
2023/03/18 03:54:12;;;;;;;24.45;22.00;;;9.70;99.90;;;;;;7375435;19;20015;-68
2023/03/18 03:56:39;;;;;;;30.15;23.90;;;9.60;99.90;;;;;;7374979;19;20109;-68
2023/03/18 03:59:06;;;;;;;27.02;23.40;;;9.60;99.90;;;;;;7376338;19;20023;-69
2023/03/18 04:01:56;;;;;;;26.65;23.77;;;9.60;99.90;;;;;;7378441;19;20036;-68
2023/03/18 04:04:24;;;;;;;27.00;22.80;;;9.50;99.90;;;;;;7380544;19;20074;-68
2023/03/18 04:06:50;;;;;;;26.50;23.50;;;9.60;99.90;;;;;;7378571;19;20094;-68
2023/03/18 04:09:17;;;;;;;30.23;23.63;;;9.60;99.90;;;;;;7382424;19;20489;-68
2023/03/18 04:11:44;;;;;;;25.88;23.10;;;9.50;99.90;;;;;;7378941;19;20022;-68
2023/03/18 04:14:11;;;;;;;27.27;24.17;;;9.50;99.90;;;;;;7379316;19;20035;-68
2023/03/18 04:16:38;;;;;;;28.35;24.60;;;9.50;99.90;;;;;;7379332;19;20043;-68
2023/03/18 04:19:06;;;;;;;25.60;22.92;;;9.50;99.90;;;;;;7379293;19;20022;-68
2023/03/18 04:21:33;;;;;;;29.02;24.77;;;9.50;99.90;;;;;;7378907;19;20671;-67
2023/03/18 04:24:03;;;;;;;27.30;24.48;;;9.40;99.90;;;;;;7373607;19;20940;-68
2023/03/18 04:26:30;;;;;;;28.00;25.08;;;9.40;99.90;;;;;;7375579;19;20018;-67
2023/03/18 04:29:00;;;;;;;29.33;26.13;;;9.30;99.90;;;;;;7374117;19;20791;-67
2023/03/18 04:31:27;;;;;;;28.40;25.13;;;9.40;99.90;;;;;;7372389;19;20124;-68
2023/03/18 04:33:54;;;;;;;30.05;26.98;;;9.40;99.90;;;;;;7376709;19;20434;-70
2023/03/18 04:36:20;;;;;;;30.35;27.17;;;9.40;99.90;;;;;;7375908;19;20128;-68
2023/03/18 04:38:47;;;;;;;31.50;28.13;;;9.40;99.90;;;;;;7375878;19;20474;-69
2023/03/18 04:41:15;;;;;;;31.45;28.20;;;9.40;99.90;;;;;;7376677;19;20921;-66
2023/03/18 04:43:43;;;;;;;31.70;27.90;;;9.30;99.90;;;;;;7378988;19;20027;-66
2023/03/18 04:46:10;;;;;;;31.58;27.02;;;9.30;99.90;;;;;;7377966;19;20033;-68
2023/03/18 04:48:38;;;;;;;31.83;28.50;;;9.30;99.90;;;;;;7379453;19;20455;-68
2023/03/18 04:51:08;;;;;;;30.33;27.10;;;9.30;99.90;;;;;;7375869;19;20015;-68
2023/03/18 04:53:36;;;;;;;33.97;28.38;;;9.30;99.90;;;;;;7378271;19;20018;-66
2023/03/18 04:56:03;;;;;;;31.90;28.40;;;9.30;99.90;;;;;;7375377;19;20577;-67
2023/03/18 04:58:39;;;;;;;32.72;28.48;;;9.30;99.90;;;;;;7374114;19;20029;-67
2023/03/18 05:01:14;;;;;;;31.17;27.90;;;9.30;99.90;;;;;;7374080;19;20030;-67
2023/03/18 05:03:42;;;;;;;31.38;27.95;;;9.30;99.90;;;;;;7374683;19;20018;-68
2023/03/18 05:06:20;;;;;;;34.03;29.35;;;9.20;99.90;;;;;;7376172;19;20014;-68
2023/03/18 05:09:17;;;;;;;35.40;30.17;;;9.20;99.90;;;;;;7377659;19;20042;-68
2023/03/18 05:11:44;;;;;;;34.63;28.45;;;9.20;99.90;;;;;;7375743;19;20050;-68
2023/03/18 05:14:28;;;;;;;34.67;29.15;;;9.20;99.90;;;;;;7378249;19;20062;-68
2023/03/18 05:16:58;;;;;;;33.97;28.38;;;9.20;99.90;;;;;;7376228;19;20014;-68
2023/03/18 05:19:28;;;;;;;36.92;29.42;;;9.20;99.90;;;;;;7375261;19;20026;-68
2023/03/18 05:22:16;;;;;;;29.27;26.38;;;9.20;99.90;;;;;;7378983;19;20040;-70
2023/03/18 05:24:45;;;;;;;30.92;27.63;;;9.20;99.90;;;;;;7373429;19;20015;-67
2023/03/18 05:27:14;;;;;;;31.35;27.33;;;9.10;99.90;;;;;;7372070;19;20089;-68
2023/03/18 05:29:43;;;;;;;32.90;28.02;;;9.10;99.90;;;;;;7368626;19;20019;-68
2023/03/18 05:32:18;;;;;;;30.48;27.17;;;9.10;99.90;;;;;;7373797;19;20022;-68
2023/03/18 05:34:49;;;;;;;33.55;27.98;;;9.10;99.90;;;;;;7376651;19;20062;-68
2023/03/18 05:37:16;;;;;;;30.35;27.10;;;9.10;99.90;;;;;;7377724;19;20018;-68
2023/03/18 05:39:48;;;;;;;28.85;25.67;;;9.10;99.90;;;;;;7371238;19;20031;-68
2023/03/18 05:42:18;;;;;;;28.13;25.25;;;9.20;99.90;;;;;;7377687;19;20517;-67
2023/03/18 05:44:45;;;;;;;27.52;23.73;;;9.30;99.90;;;;;;7374400;19;20647;-67
2023/03/18 05:47:35;;;;;;;28.58;22.80;;;9.30;99.90;;;;;;7375944;19;20026;-67
2023/03/18 05:50:35;;;;;;;26.27;22.75;;;9.40;99.90;;;;;;7375350;19;20015;-66
2023/03/18 05:53:25;;;;;;;24.58;22.00;;;9.40;99.90;;;;;;7376177;19;20060;-68
2023/03/18 05:56:20;;;;;;;23.60;21.10;;;9.50;99.90;;;;;;7372589;19;20026;-67
2023/03/18 05:59:12;;;;;;;24.00;21.70;;;9.50;99.90;;;;;;7370122;19;20022;-69
2023/03/18 06:01:44;;;;;;;26.33;22.63;;;9.50;99.90;;;;;;7374386;19;20500;-67
2023/03/18 06:04:23;;;;;;;25.67;22.40;;;9.50;99.90;;;;;;7374413;19;20030;-70
2023/03/18 06:06:51;;;;;;;27.90;22.05;;;9.50;99.90;;;;;;7369873;19;20014;-68
2023/03/18 06:09:18;;;;;;;23.73;21.23;;;9.50;99.90;;;;;;7371816;19;20061;-68
2023/03/18 06:11:45;;;;;;;22.80;19.65;;;9.40;99.90;;;;;;7371281;19;20026;-68
2023/03/18 06:14:21;;;;;;;22.45;20.08;;;9.50;99.90;;;;;;7371681;19;20026;-67
2023/03/18 06:16:47;;;;;;;22.20;19.98;;;9.50;99.90;;;;;;7370392;19;20023;-68
2023/03/18 06:19:14;;;;;;;24.98;20.75;;;9.50;99.90;;;;;;7371679;19;20010;-67
2023/03/18 06:21:45;;;;;;;23.20;20.58;;;9.50;99.90;;;;;;7369615;19;20667;-68
2023/03/18 06:24:13;;;;;;;22.95;20.52;;;9.60;99.90;;;;;;7370077;19;20026;-68
2023/03/18 06:26:40;;;;;;;23.90;21.08;;;9.60;99.90;;;;;;7369542;19;20918;-68
2023/03/18 06:29:07;;;;;;;23.88;21.30;;;9.60;99.90;;;;;;7368770;19;20014;-68
2023/03/18 06:31:36;;;;;;;25.55;20.27;;;9.60;99.90;;;;;;7368677;19;21065;-68
2023/03/18 06:34:03;;;;;;;23.30;20.13;;;9.60;99.90;;;;;;7370920;19;20014;-68
2023/03/18 06:36:33;;;;;;;24.63;20.75;;;9.70;99.90;;;;;;7371783;19;20338;-68
2023/03/18 06:39:01;;;;;;;23.02;20.70;;;9.70;99.90;;;;;;7369262;19;20018;-68
2023/03/18 06:41:28;;;;;;;23.55;20.85;;;9.70;99.90;;;;;;7368171;19;20018;-68
2023/03/18 06:44:18;;;;;;;23.88;21.38;;;9.80;99.90;;;;;;7371412;19;21010;-69
2023/03/18 06:46:45;;;;;;;31.20;21.58;;;9.80;99.90;;;;;;7366509;19;20107;-68
2023/03/18 06:49:13;;;;;;;25.95;20.58;;;9.90;99.90;;;;;;7366299;19;20021;-69
2023/03/18 06:51:47;;;;;;;24.40;21.00;;;9.90;99.90;;;;;;7365569;19;20041;-67
2023/03/18 06:54:15;;;;;;;24.17;20.17;;;9.90;99.90;;;;;;7367329;19;20600;-69
2023/03/18 06:56:45;;;;;;;24.23;19.85;;;9.90;99.90;;;;;;7368850;19;20355;-68
2023/03/18 06:59:22;;;;;;;24.83;20.83;;;10.00;99.90;;;;;;7369731;19;20036;-68
2023/03/18 07:01:53;;;;;;;23.02;18.83;;;10.00;99.90;;;;;;7369990;19;20060;-68
2023/03/18 07:04:22;;;;;;;25.75;20.60;;;10.10;99.90;;;;;;7375498;19;20402;-69
2023/03/18 07:06:50;;;;;;;27.00;20.92;;;10.20;99.90;;;;;;7378722;19;20026;-69
2023/03/18 07:09:17;;;;;;;24.80;19.60;;;10.30;99.90;;;;;;7378472;19;20026;-69
2023/03/18 07:11:49;;;;;;;21.02;18.80;;;10.30;99.90;;;;;;7374619;19;20803;-68
2023/03/18 07:14:20;;;;;;;20.05;17.95;;;10.40;99.90;;;;;;7377331;19;20033;-69
2023/03/18 07:16:46;;;;;;;23.73;18.95;;;10.50;99.90;;;;;;7376323;19;20740;-68
2023/03/18 07:19:16;;;;;;;25.90;18.42;;;10.50;99.90;;;;;;7372723;19;20056;-68
2023/03/18 07:21:45;;;;;;;22.30;18.15;;;10.60;99.90;;;;;;7374999;19;20026;-68
2023/03/18 07:24:11;;;;;;;21.45;18.10;;;10.60;99.90;;;;;;7374330;19;20486;-68
2023/03/18 07:26:38;;;;;;;20.50;18.02;;;10.60;99.90;;;;;;7377714;19;20356;-69
2023/03/18 07:29:05;;;;;;;21.30;18.58;;;10.60;99.90;;;;;;7375251;19;20128;-68
2023/03/18 07:31:32;;;;;;;24.02;18.35;;;10.70;99.90;;;;;;7375056;19;20026;-69
2023/03/18 07:33:59;;;;;;;24.17;17.75;;;10.60;99.90;;;;;;7374024;19;20435;-68
2023/03/18 07:36:28;;;;;;;21.48;18.55;;;10.60;99.90;;;;;;7369745;19;20026;-69
2023/03/18 07:38:55;;;;;;;25.35;17.83;;;10.70;99.90;;;;;;7371363;19;20031;-68
2023/03/18 07:41:21;;;;;;;22.05;19.10;;;10.70;99.90;;;;;;7375239;19;20024;-69
2023/03/18 07:43:48;;;;;;;23.15;20.13;;;10.60;99.90;;;;;;7376745;19;20024;-68
2023/03/18 07:46:14;;;;;;;24.35;19.90;;;10.70;99.90;;;;;;7380084;19;20022;-68
2023/03/18 07:48:41;;;;;;;22.98;20.35;;;10.60;99.90;;;;;;7379728;19;20801;-68
2023/03/18 07:51:07;;;;;;;24.75;20.35;;;10.60;99.90;;;;;;7377741;19;21007;-68
2023/03/18 07:53:34;;;;;;;25.30;21.60;;;10.60;99.90;;;;;;7379096;19;20015;-68
2023/03/18 07:56:04;;;;;;;25.85;21.25;;;10.50;99.90;;;;;;7375124;19;20043;-68
2023/03/18 07:58:31;;;;;;;26.88;22.80;;;10.50;99.90;;;;;;7375062;19;20022;-68
2023/03/18 08:00:58;;;;;;;26.52;22.95;;;10.40;99.90;;;;;;7376889;19;20018;-68
2023/03/18 08:03:25;;;;;;;31.58;24.08;;;10.40;99.90;;;;;;7373098;19;20034;-69
2023/03/18 08:05:51;;;;;;;30.90;25.45;;;10.40;99.90;;;;;;7375023;19;20042;-68
2023/03/18 08:08:21;;;;;;;29.02;26.02;;;10.50;99.90;;;;;;7374410;19;20770;-68
2023/03/18 08:10:47;;;;;;;35.75;27.20;;;10.70;99.90;;;;;;7372586;19;20113;-68
2023/03/18 08:13:14;;;;;;;32.70;29.33;;;10.80;99.90;;;;;;7369683;19;20386;-72
2023/03/18 08:15:40;;;;;;;32.90;29.45;;;10.90;99.90;;;;;;7368973;19;20011;-69
2023/03/18 08:18:09;;;;;;;35.15;30.65;;;10.90;99.90;;;;;;7368623;19;20018;-69
2023/03/18 08:20:37;;;;;;;36.88;30.83;;;11.00;99.90;;;;;;7374367;19;20020;-68
2023/03/18 08:23:03;;;;;;;35.80;31.40;;;11.00;99.90;;;;;;7370626;19;20459;-69
2023/03/18 08:25:38;;;;;;;33.28;29.50;;;11.10;99.90;;;;;;7375021;19;20029;-68
2023/03/18 08:28:06;;;;;;;30.92;27.58;;;11.10;99.90;;;;;;7372538;19;20007;-69
2023/03/18 08:30:33;;;;;;;33.88;30.27;;;11.20;99.90;;;;;;7374537;19;20120;-68
2023/03/18 08:33:00;;;;;;;31.90;28.23;;;11.30;99.90;;;;;;7373447;19;20019;-69
2023/03/18 08:35:27;;;;;;;30.30;27.05;;;11.30;99.90;;;;;;7374411;19;20026;-68
2023/03/18 08:37:54;;;;;;;29.70;26.33;;;11.30;99.90;;;;;;7372951;19;20026;-72
2023/03/18 08:40:22;;;;;;;31.38;27.35;;;11.40;99.90;;;;;;7368872;19;20007;-69
2023/03/18 08:42:48;;;;;;;28.55;25.55;;;11.40;99.90;;;;;;7364092;19;21170;-69
2023/03/18 08:45:15;;;;;;;28.10;25.02;;;11.50;99.90;;;;;;7365655;19;20018;-69
2023/03/18 08:47:42;;;;;;;31.75;26.60;;;11.50;99.90;;;;;;7373015;19;20066;-69
2023/03/18 08:50:09;;;;;;;30.27;27.08;;;11.60;99.90;;;;;;7372216;19;20019;-71
2023/03/18 08:52:37;;;;;;;30.38;25.75;;;11.70;99.90;;;;;;7372161;19;20022;-69
2023/03/18 08:55:05;;;;;;;29.08;25.27;;;11.70;99.90;;;;;;7376050;19;20058;-70
2023/03/18 08:57:33;;;;;;;26.55;23.52;;;11.80;99.90;;;;;;7377036;19;20018;-70
2023/03/18 09:00:20;;;;;;;26.70;23.00;;;12.00;99.90;;;;;;7374132;19;20116;-75
2023/03/18 09:02:47;;;;;;;27.55;23.90;;;12.20;99.90;;;;;;7373075;19;20989;-73
2023/03/18 09:05:14;;;;;;;29.85;25.10;;;12.60;99.90;;;;;;7373091;19;20029;-72
2023/03/18 09:07:40;;;;;;;27.42;22.38;;;13.00;99.90;;;;;;7369631;19;20108;-72
2023/03/18 09:10:12;;;;;;;25.08;22.48;;;13.20;99.90;;;;;;7370903;19;20015;-72
2023/03/18 09:12:43;;;;;;;26.35;21.58;;;13.40;99.90;;;;;;7373563;19;21239;-72
2023/03/18 09:15:11;;;;;;;23.30;19.33;;;14.10;99.90;;;;;;7372387;19;20131;-72
2023/03/18 09:17:57;;;;;;;22.38;19.40;;;14.70;99.90;;;;;;7371736;19;20022;-69
2023/03/18 09:20:45;;;;;;;22.20;18.50;;;15.30;99.90;;;;;;7375186;19;20082;-69
2023/03/18 09:23:31;;;;;;;19.60;17.60;;;15.90;99.90;;;;;;7373991;19;20024;-72
2023/03/18 09:26:19;;;;;;;21.08;18.33;;;15.90;99.90;;;;;;7378547;19;20488;-68
2023/03/18 09:29:05;;;;;;;22.52;19.20;;;15.40;99.90;;;;;;7376187;19;20097;-69
2023/03/18 09:31:52;;;;;;;22.30;19.80;;;15.40;99.90;;;;;;7375251;19;20015;-70
2023/03/18 09:34:38;;;;;;;23.98;19.30;;;15.20;99.90;;;;;;7378061;19;21063;-69
2023/03/18 09:37:25;;;;;;;25.80;20.30;;;15.40;99.90;;;;;;7376288;19;20018;-69
2023/03/18 09:40:27;;;;;;;23.25;20.85;;;15.30;99.90;;;;;;7369147;19;20022;-69
2023/03/18 09:43:14;;;;;;;25.25;22.63;;;14.80;99.90;;;;;;7370583;19;20023;-69
2023/03/18 09:46:29;;;;;;;26.48;23.20;;;14.80;99.90;;;;;;7375423;19;20014;-69
2023/03/18 09:49:50;;;;;;;27.05;24.15;;;14.60;99.90;;;;;;7373311;19;20783;-69
2023/03/18 09:53:11;;;;;;;30.23;25.90;;;14.20;99.90;;;;;;7375037;19;20018;-69
2023/03/18 09:56:02;;;;;;;30.05;26.02;;;13.90;99.90;;;;;;7374410;19;20057;-69
2023/03/18 09:58:59;;;;;;;29.63;26.10;;;13.70;99.90;;;;;;7374340;19;20794;-72
2023/03/18 10:01:49;;;;;;;29.05;26.13;;;13.60;99.90;;;;;;7373832;19;20026;-72
2023/03/18 10:04:45;;;;;;;28.17;24.65;;;13.70;99.90;;;;;;7368717;19;20015;-72
2023/03/18 10:07:38;;;;;;;28.92;25.92;;;13.70;99.90;;;;;;7365565;19;20127;-72
2023/03/18 10:10:30;;;;;;;27.52;24.63;;;13.60;99.90;;;;;;7370903;19;20018;-72
2023/03/18 10:13:24;;;;;;;28.88;25.80;;;13.40;99.90;;;;;;7365658;19;20025;-72
2023/03/18 10:16:16;;;;;;;31.30;26.80;;;13.40;99.90;;;;;;7371466;19;20037;-71
2023/03/18 10:19:03;;;;;;;29.33;26.25;;;13.40;99.90;;;;;;7361083;19;20042;-71
2023/03/18 10:22:05;;;;;;;27.60;24.80;;;13.60;99.90;;;;;;7365175;19;20035;-72
2023/03/18 10:25:10;;;;;;;28.75;24.50;;;13.70;99.90;;;;;;7364485;19;20089;-71
2023/03/18 10:28:36;;;;;;;26.58;23.90;;;13.90;99.90;;;;;;7368731;19;20044;-71
2023/03/18 10:31:32;;;;;;;25.98;23.27;;;14.10;99.90;;;;;;7366006;19;20019;-72
2023/03/18 10:34:22;;;;;;;25.92;23.33;;;14.40;99.90;;;;;;7366732;19;20022;-71
2023/03/18 10:37:14;;;;;;;25.80;23.10;;;14.50;99.90;;;;;;7371184;19;20780;-72
2023/03/18 10:40:01;;;;;;;;;;;15.30;99.90;;;;;;7376352;19;20039;-72
2023/03/18 10:42:49;;;;;;;26.02;22.85;;;15.30;99.90;;;;;;7377720;19;20477;-72
2023/03/18 10:45:40;;;;;;;25.33;22.73;;;15.90;99.90;;;;;;7380466;19;20078;-72
2023/03/18 10:48:16;;;;;;;23.90;21.48;;;16.20;99.90;;;;;;7379598;19;20093;-72
2023/03/18 10:51:04;;;;;;;23.63;21.23;;;16.70;99.90;;;;;;7380679;19;20010;-72
2023/03/18 10:54:14;;;;;;;23.85;21.35;;;17.00;99.90;;;;;;7379810;19;20042;-73
2023/03/18 10:56:41;;;;;;;23.58;21.05;;;16.30;99.90;;;;;;7373546;19;20018;-72
2023/03/18 10:59:15;;;;;;;23.02;20.30;;;15.60;99.90;;;;;;7378029;19;20491;-72
2023/03/18 11:01:46;;;;;;;22.40;20.25;;;15.30;99.90;;;;;;7378383;19;21495;-71
2023/03/18 11:04:16;;;;;;;22.02;19.95;;;14.90;99.90;;;;;;7378773;19;20037;-72
2023/03/18 11:06:48;;;;;;;19.33;17.52;;;14.80;99.90;;;;;;7380053;19;20194;-73
2023/03/18 11:09:18;;;;;;;13.95;12.55;;;14.60;99.90;;;;;;7375749;19;20029;-72
2023/03/18 11:11:48;;;;;;;15.07;13.68;;;14.60;99.90;;;;;;7379814;19;20504;-72
2023/03/18 11:14:28;;;;;;;15.13;13.57;;;14.60;99.90;;;;;;7372767;19;20023;-72
2023/03/18 11:17:01;;;;;;;15.65;14.02;;;14.50;99.90;;;;;;7375310;19;20040;-72
2023/03/18 11:19:46;;;;;;;15.27;13.70;;;14.70;99.90;;;;;;7379447;19;20025;-72
2023/03/18 11:22:19;;;;;;;16.40;14.20;;;15.00;99.90;;;;;;7377575;19;20023;-72
2023/03/18 11:24:59;;;;;;;14.50;13.00;;;15.30;99.90;;;;;;7374907;19;20780;-72
2023/03/18 11:27:33;;;;;;;15.35;13.65;;;15.70;99.90;;;;;;7384662;19;20093;-73
2023/03/18 11:30:04;;;;;;;11.82;10.70;;;15.90;99.90;;;;;;7383842;19;20406;-73
2023/03/18 11:32:32;;;;;;;;;;;15.80;99.90;;;;;;7379853;19;20026;-71
2023/03/18 11:35:07;;;;;;;11.25;9.23;;;15.80;99.90;;;;;;7374976;19;19923;-72
2023/03/18 11:37:39;;;;;;;11.88;10.65;;;15.70;99.90;;;;;;7376246;19;20015;-68
2023/03/18 11:40:14;;;;;;;;;;;15.70;99.90;;;;;;7383288;19;20014;-73
2023/03/18 11:42:43;;;;;;;11.23;10.02;;;15.50;99.90;;;;;;7383718;19;20658;-73
2023/03/18 11:45:33;;;;;;;10.80;9.70;;;15.70;99.90;;;;;;7384333;19;20847;-74
2023/03/18 11:48:00;;;;;;;10.73;9.10;;;16.50;99.90;;;;;;7372069;19;20385;-74
2023/03/18 11:50:39;;;;;;;10.65;9.55;;;17.50;99.90;;;;;;7387953;19;20403;-73
2023/03/18 11:53:08;;;;;;;11.02;9.85;;;18.30;99.90;;;;;;7389327;19;20019;-73
2023/03/18 11:55:51;;;;;;;11.07;9.10;;;19.40;99.90;;;;;;7385727;19;20022;-73
2023/03/18 11:58:45;;;;;;;10.07;9.05;;;20.00;99.90;;;;;;7388690;19;20018;-73
2023/03/18 12:01:38;;;;;;;10.70;8.98;;;20.60;99.90;;;;;;7381911;19;20104;-73
2023/03/18 12:04:25;;;;;;;10.95;9.07;;;20.70;99.90;;;;;;7383955;19;20090;-73
2023/03/18 12:07:25;;;;;;;8.40;7.15;;;21.10;94.10;;;;;;7385888;19;20122;-72
2023/03/18 12:10:08;;;;;;;8.73;7.47;;;21.50;88.00;;;;;;7384288;19;20042;-72
2023/03/18 12:12:52;;;;;;;7.13;6.43;;;22.10;94.70;;;;;;7378956;19;20102;-72
2023/03/18 12:15:21;;;;;;;9.50;6.57;;;22.30;79.80;;;;;;7383682;19;20029;-71
2023/03/18 12:17:53;;;;;;;8.30;7.45;;;22.00;79.20;;;;;;7384630;19;20045;-72
2023/03/18 12:20:52;;;;;;;8.55;7.30;;;22.30;77.40;;;;;;7386289;19;20018;-69
2023/03/18 12:23:21;;;;;;;6.70;5.43;;;22.90;69.60;;;;;;7386160;19;20070;-69
2023/03/18 12:26:14;;;;;;;6.85;5.53;;;22.50;67.40;;;;;;7381555;19;20022;-70
2023/03/18 12:29:03;;;;;;;10.93;7.15;;;22.40;67.90;;;;;;7381537;19;20022;-70
2023/03/18 12:31:48;;;;;;;7.90;7.07;;;22.10;69.50;;;;;;7387252;19;20031;-69
2023/03/18 12:34:45;;;;;;;8.90;8.00;;;21.70;69.20;;;;;;7380304;19;20039;-70
2023/03/18 12:37:21;;;;;;;9.77;6.95;;;21.50;72.20;;;;;;7381930;19;20537;-70
2023/03/18 12:39:51;;;;;;;8.85;7.93;;;21.70;75.80;;;;;;7382758;19;20018;-70
2023/03/18 12:42:42;;;;;;;11.10;7.85;;;21.30;91.80;;;;;;7377196;19;21261;-69
2023/03/18 12:45:09;;;;;;;;;;;21.50;91.40;;;;;;7379411;19;20022;-70
2023/03/18 12:47:48;;;;;;;10.73;8.48;;;21.20;85.40;;;;;;7382120;19;19946;-69
2023/03/18 12:50:38;;;;;;;9.93;8.93;;;20.90;93.90;;;;;;7381195;19;20790;-72
2023/03/18 12:53:14;;;;;;;10.95;9.48;;;20.10;97.10;;;;;;7381752;19;20037;-71
2023/03/18 12:55:45;;;;;;;9.77;8.77;;;19.40;99.90;;;;;;7377827;19;20018;-72
2023/03/18 12:58:21;;;;;;;11.40;9.98;;;18.70;99.90;;;;;;7386337;19;20015;-70
2023/03/18 13:01:06;;;;;;;11.38;10.25;;;18.40;99.90;;;;;;7383541;19;20116;-72
2023/03/18 13:03:34;;;;;;;11.05;10.05;;;18.40;99.90;;;;;;7379566;19;20026;-72
2023/03/18 13:06:19;;;;;;;12.82;11.52;;;18.40;99.90;;;;;;7376739;19;20031;-72
2023/03/18 13:09:20;;;;;;;12.52;11.23;;;18.20;99.90;;;;;;7377013;19;20384;-72